createdAt,value
2023-02-19T00:02:57.979Z,8.07
2023-02-19T00:06:08.181Z,8.82
2023-02-19T00:09:14.315Z,8.93
2023-02-19T00:12:19.692Z,10.27
2023-02-19T00:15:25.293Z,9.43
2023-02-19T00:18:30.575Z,9.27
2023-02-19T00:21:38.331Z,9.68
2023-02-19T00:24:44.219Z,9.25
2023-02-19T00:27:49.456Z,9.68
2023-02-19T00:30:54.952Z,9.65
2023-02-19T00:34:01.169Z,9.18
2023-02-19T00:37:09.410Z,8.60
2023-02-19T00:43:19.324Z,9.07
2023-02-19T00:46:25.613Z,9.32
2023-02-19T00:49:30.908Z,8.80
2023-02-19T00:52:39.652Z,10.23
2023-02-19T00:55:45.044Z,9.63
2023-02-19T00:58:50.934Z,8.98
2023-02-19T01:01:56.437Z,9.00
2023-02-19T01:05:01.816Z,10.00
2023-02-19T01:08:11.163Z,10.60
2023-02-19T01:11:16.529Z,10.60
2023-02-19T01:14:21.873Z,9.75
2023-02-19T01:17:27.561Z,10.35
2023-02-19T01:20:32.765Z,11.13
2023-02-19T01:23:40.974Z,10.35
2023-02-19T01:29:51.529Z,9.68
2023-02-19T01:33:00.151Z,9.23
2023-02-19T01:36:06.905Z,10.65
2023-02-19T01:39:15.761Z,10.25
2023-02-19T01:42:21.236Z,10.23
2023-02-19T01:45:28.828Z,10.70
2023-02-19T01:48:36.011Z,10.15
2023-02-19T01:51:42.676Z,9.77
2023-02-19T01:54:52.078Z,10.05
2023-02-19T01:57:59.197Z,10.18
2023-02-19T02:01:06.215Z,10.27
2023-02-19T02:04:12.787Z,9.10
2023-02-19T02:07:30.905Z,9.15
2023-02-19T02:10:38.880Z,9.52
2023-02-19T02:13:44.731Z,9.95
2023-02-19T02:16:55.848Z,9.35
2023-02-19T02:20:08.211Z,9.88
2023-02-19T02:23:17.699Z,10.25
2023-02-19T02:26:34.751Z,9.23
2023-02-19T02:29:56.106Z,9.55
2023-02-19T02:33:08.040Z,9.57
2023-02-19T02:36:16.048Z,8.82
2023-02-19T02:39:23.616Z,9.50
2023-02-19T02:42:32.453Z,9.40
2023-02-19T02:45:45.087Z,9.38
2023-02-19T02:49:01.960Z,8.88
2023-02-19T02:52:27.479Z,8.65
2023-02-19T02:55:31.625Z,9.23
2023-02-19T02:58:37.175Z,9.05
2023-02-19T03:01:58.960Z,9.90
2023-02-19T03:05:21.628Z,8.35
2023-02-19T03:08:29.246Z,8.48
2023-02-19T03:11:47.302Z,10.20
2023-02-19T03:15:06.882Z,8.32
2023-02-19T03:18:25.140Z,8.30
2023-02-19T03:21:34.247Z,9.18
2023-02-19T03:24:53.221Z,8.48
2023-02-19T03:28:00.968Z,9.15
2023-02-19T03:31:06.784Z,9.07
2023-02-19T03:34:15.720Z,8.07
2023-02-19T03:37:26.387Z,8.65
2023-02-19T03:40:34.271Z,9.20
2023-02-19T03:43:42.258Z,9.07
2023-02-19T03:49:54.194Z,9.32
2023-02-19T03:53:07.815Z,8.75
2023-02-19T03:56:17.347Z,8.57
2023-02-19T03:59:26.911Z,9.02
2023-02-19T04:02:34.293Z,9.90
2023-02-19T04:05:43.412Z,9.18
2023-02-19T04:08:54.924Z,8.73
2023-02-19T04:12:01.734Z,10.15
2023-02-19T04:15:10.746Z,8.25
2023-02-19T04:18:18.369Z,8.85
2023-02-19T04:21:24.334Z,8.40
2023-02-19T04:24:34.551Z,8.48
2023-02-19T04:27:40.529Z,8.70
2023-02-19T04:30:46.382Z,7.72
2023-02-19T04:33:51.833Z,8.43
2023-02-19T04:36:57.687Z,8.73
2023-02-19T04:40:05.465Z,8.98
2023-02-19T04:43:10.847Z,8.52
2023-02-19T04:46:16.278Z,8.68
2023-02-19T04:49:21.792Z,8.38
2023-02-19T04:52:27.181Z,8.85
2023-02-19T04:55:35.395Z,9.00
2023-02-19T04:58:40.957Z,8.35
2023-02-19T05:01:46.302Z,8.75
2023-02-19T05:04:51.868Z,7.80
2023-02-19T05:07:57.503Z,7.95
2023-02-19T05:11:06.943Z,8.13
2023-02-19T05:14:12.281Z,8.48
2023-02-19T05:17:18.046Z,8.05
2023-02-19T05:20:23.273Z,7.97
2023-02-19T05:23:29.726Z,7.68
2023-02-19T05:26:37.588Z,7.78
2023-02-19T05:29:42.775Z,8.38
2023-02-19T05:32:48.316Z,8.65
2023-02-19T05:35:55.232Z,9.38
2023-02-19T05:39:01.004Z,8.27
2023-02-19T05:42:09.025Z,8.50
2023-02-19T05:45:14.354Z,8.75
2023-02-19T05:48:19.624Z,7.35
2023-02-19T05:51:26.512Z,8.40
2023-02-19T05:54:31.709Z,7.63
2023-02-19T05:57:43.765Z,8.32
2023-02-19T06:00:49.035Z,7.80
2023-02-19T06:03:57.335Z,7.93
2023-02-19T06:07:03.000Z,7.63
2023-02-19T06:10:08.811Z,7.07
2023-02-19T06:13:17.860Z,7.55
2023-02-19T06:16:23.564Z,7.35
2023-02-19T06:19:28.654Z,7.97
2023-02-19T06:22:34.058Z,7.40
2023-02-19T06:25:39.388Z,7.72
2023-02-19T06:28:48.514Z,7.50
2023-02-19T06:31:54.033Z,7.38
2023-02-19T06:34:59.327Z,7.25
2023-02-19T06:38:05.012Z,8.02
2023-02-19T06:41:10.957Z,7.47
2023-02-19T06:44:19.063Z,6.90
2023-02-19T06:47:25.537Z,7.13
2023-02-19T06:50:30.744Z,6.85
2023-02-19T06:53:36.223Z,6.72
2023-02-19T06:56:42.537Z,7.53
2023-02-19T06:59:50.249Z,7.43
2023-02-19T07:02:57.922Z,6.90
2023-02-19T07:06:04.023Z,6.18
2023-02-19T07:09:10.082Z,6.65
2023-02-19T07:12:15.580Z,6.88
2023-02-19T07:15:23.574Z,6.97
2023-02-19T07:18:29.162Z,7.20
2023-02-19T07:21:37.956Z,7.15
2023-02-19T07:24:43.392Z,6.72
2023-02-19T07:27:49.014Z,6.18
2023-02-19T07:30:57.232Z,6.97
2023-02-19T07:34:02.856Z,6.97
2023-02-19T07:37:08.791Z,7.10
2023-02-19T07:40:14.680Z,7.35
2023-02-19T07:43:20.081Z,7.10
2023-02-19T07:46:28.092Z,6.30
2023-02-19T07:49:33.516Z,8.00
2023-02-19T07:52:39.044Z,7.50
2023-02-19T07:55:44.556Z,7.43
2023-02-19T07:58:50.110Z,7.22
2023-02-19T08:02:10.349Z,7.50
2023-02-19T08:05:15.779Z,6.93
2023-02-19T08:08:21.155Z,6.43
2023-02-19T08:11:38.616Z,6.47
2023-02-19T08:14:43.994Z,7.70
2023-02-19T08:17:52.536Z,7.45
2023-02-19T08:24:02.724Z,7.00
2023-02-19T08:27:07.929Z,6.97
2023-02-19T08:30:13.754Z,7.97
2023-02-19T08:33:22.890Z,7.10
2023-02-19T08:36:28.461Z,7.85
2023-02-19T08:39:33.877Z,6.88
2023-02-19T08:42:39.566Z,7.82
2023-02-19T08:45:45.536Z,7.95
2023-02-19T08:48:54.070Z,7.82
2023-02-19T08:55:04.848Z,8.23
2023-02-19T08:58:10.476Z,7.20
2023-02-19T09:01:18.067Z,7.72
2023-02-19T09:04:26.309Z,7.40
2023-02-19T09:07:31.850Z,7.30
2023-02-19T09:10:37.256Z,7.88
2023-02-19T09:13:42.766Z,8.40
2023-02-19T09:16:48.476Z,7.90
2023-02-19T09:19:56.256Z,8.55
2023-02-19T09:23:01.904Z,8.13
2023-02-19T09:26:09.796Z,8.13
2023-02-19T09:29:15.656Z,8.18
2023-02-19T09:32:20.668Z,8.45
2023-02-19T09:35:28.994Z,8.13
2023-02-19T09:38:34.521Z,8.52
2023-02-19T09:41:41.481Z,7.85
2023-02-19T09:44:49.069Z,8.80
2023-02-19T09:47:56.567Z,8.23
2023-02-19T09:51:05.375Z,7.95
2023-02-19T09:54:16.556Z,7.95
2023-02-19T09:57:24.148Z,9.68
2023-02-19T10:00:30.804Z,8.07
2023-02-19T10:03:39.655Z,8.40
2023-02-19T10:06:47.635Z,8.98
2023-02-19T10:09:55.880Z,8.63
2023-02-19T10:16:07.393Z,7.50
2023-02-19T10:19:13.111Z,8.98
2023-02-19T10:22:21.894Z,8.18
2023-02-19T10:25:27.016Z,8.48
2023-02-19T10:28:34.158Z,8.30
2023-02-19T10:31:39.744Z,9.07
2023-02-19T10:34:45.000Z,8.55
2023-02-19T10:37:54.134Z,8.00
2023-02-19T10:41:02.321Z,9.02
2023-02-19T10:44:09.695Z,8.88
2023-02-19T10:47:18.923Z,8.77
2023-02-19T10:50:27.444Z,8.35
2023-02-19T10:53:43.399Z,8.55
2023-02-19T10:56:48.502Z,8.80
2023-02-19T10:59:54.847Z,9.13
2023-02-19T11:03:27.062Z,9.13
2023-02-19T11:06:34.867Z,9.50
2023-02-19T11:09:45.520Z,9.07
2023-02-19T11:12:51.605Z,9.48
2023-02-19T11:15:58.120Z,8.70
2023-02-19T11:19:03.894Z,8.77
2023-02-19T11:22:21.999Z,8.75
2023-02-19T11:25:30.222Z,9.38
2023-02-19T11:28:36.883Z,9.18
2023-02-19T11:31:42.443Z,9.00
2023-02-19T11:34:47.540Z,8.32
2023-02-19T11:37:57.081Z,8.57
2023-02-19T11:41:14.237Z,9.82
2023-02-19T11:44:30.516Z,9.18
2023-02-19T11:47:42.940Z,8.27
2023-02-19T11:50:55.273Z,8.35
2023-02-19T11:54:07.839Z,9.18
2023-02-19T11:57:22.889Z,8.65
2023-02-19T12:00:29.411Z,8.57
2023-02-19T12:03:51.608Z,9.63
2023-02-19T12:07:03.043Z,9.55
2023-02-19T12:10:14.477Z,9.23
2023-02-19T12:13:26.008Z,9.48
2023-02-19T12:16:34.858Z,9.32
2023-02-19T12:19:46.996Z,8.70
2023-02-19T12:22:57.144Z,9.25
2023-02-19T12:26:06.277Z,9.00
2023-02-19T12:29:26.568Z,9.20
2023-02-19T12:32:44.359Z,9.48
2023-02-19T12:35:54.243Z,8.98
2023-02-19T12:39:05.086Z,10.40
2023-02-19T12:42:14.172Z,9.98
2023-02-19T12:45:23.411Z,9.60
2023-02-19T12:48:31.453Z,9.88
2023-02-19T12:51:41.489Z,10.82
2023-02-19T12:54:50.468Z,10.55
2023-02-19T12:57:56.738Z,9.15
2023-02-19T13:01:05.465Z,9.32
2023-02-19T13:04:28.300Z,10.40
2023-02-19T13:07:36.170Z,9.85
2023-02-19T13:10:44.132Z,9.88
2023-02-19T13:13:51.931Z,11.40
2023-02-19T13:17:02.432Z,9.98
2023-02-19T13:20:17.186Z,9.95
2023-02-19T13:23:37.613Z,9.50
2023-02-19T13:26:53.404Z,10.15
2023-02-19T13:30:14.045Z,10.02
2023-02-19T13:33:27.280Z,9.45
2023-02-19T13:36:33.098Z,9.50
2023-02-19T13:39:39.433Z,10.63
2023-02-19T13:42:45.007Z,9.75
2023-02-19T13:45:50.116Z,9.55
2023-02-19T13:49:10.287Z,9.85
2023-02-19T13:52:42.642Z,9.77
2023-02-19T13:55:57.796Z,9.75
2023-02-19T13:59:15.598Z,9.55
2023-02-19T14:02:34.628Z,10.60
2023-02-19T14:05:54.500Z,10.07
2023-02-19T14:09:00.850Z,8.88
2023-02-19T14:12:21.042Z,10.60
2023-02-19T14:15:44.314Z,9.68
2023-02-19T14:18:50.668Z,10.25
2023-02-19T14:21:56.249Z,9.85
2023-02-19T14:25:01.502Z,9.30
2023-02-19T14:28:16.748Z,9.32
2023-02-19T14:31:24.491Z,9.40
2023-02-19T14:34:29.717Z,10.13
2023-02-19T14:37:35.263Z,10.25
2023-02-19T14:40:42.123Z,8.63
2023-02-19T14:43:52.118Z,9.75
2023-02-19T14:47:00.805Z,9.77
2023-02-19T14:50:08.992Z,9.98
2023-02-19T14:53:18.621Z,9.32
2023-02-19T14:56:25.143Z,8.88
2023-02-19T14:59:33.772Z,8.90
2023-02-19T15:02:45.208Z,9.90
2023-02-19T15:05:50.670Z,9.63
2023-02-19T15:08:57.032Z,9.85
2023-02-19T15:12:03.083Z,10.07
2023-02-19T15:15:11.493Z,9.70
2023-02-19T15:18:20.329Z,10.98
2023-02-19T15:21:27.531Z,9.73
2023-02-19T15:24:33.350Z,10.40
2023-02-19T15:27:38.797Z,10.00
2023-02-19T15:30:46.965Z,9.90
2023-02-19T15:33:53.645Z,10.80
2023-02-19T15:37:00.931Z,10.13
2023-02-19T15:40:08.501Z,10.70
2023-02-19T15:43:20.583Z,10.85
2023-02-19T15:46:28.743Z,11.02
2023-02-19T15:49:37.062Z,10.02
2023-02-19T15:52:45.215Z,11.00
2023-02-19T15:55:54.762Z,10.27
2023-02-19T15:59:03.734Z,10.93
2023-02-19T16:02:12.732Z,12.45
2023-02-19T16:05:20.248Z,10.82
2023-02-19T16:08:31.474Z,11.00
2023-02-19T16:11:38.858Z,12.05
2023-02-19T16:14:44.502Z,10.52
2023-02-19T16:17:52.385Z,11.43
2023-02-19T16:20:57.745Z,11.43
2023-02-19T16:24:04.818Z,10.73
2023-02-19T16:27:10.874Z,12.00
2023-02-19T16:30:26.408Z,10.98
2023-02-19T16:33:38.799Z,11.52
2023-02-19T16:36:46.229Z,10.98
2023-02-19T16:39:51.767Z,11.85
2023-02-19T16:43:14.768Z,12.13
2023-02-19T16:46:20.269Z,10.60
2023-02-19T16:49:28.397Z,10.90
2023-02-19T16:52:33.924Z,12.30
2023-02-19T16:55:39.545Z,11.30
2023-02-19T16:58:44.798Z,11.48
2023-02-19T17:01:49.990Z,12.23
2023-02-19T17:04:58.038Z,11.70
2023-02-19T17:08:03.588Z,11.88
2023-02-19T17:11:10.115Z,12.30
2023-02-19T17:14:16.358Z,13.00
2023-02-19T17:17:21.752Z,11.60
2023-02-19T17:20:31.661Z,12.45
2023-02-19T17:23:36.932Z,13.02
2023-02-19T17:26:43.484Z,12.18
2023-02-19T17:29:48.613Z,12.63
2023-02-19T17:32:54.001Z,11.75
2023-02-19T17:36:02.406Z,13.15
2023-02-19T17:39:08.724Z,12.20
2023-02-19T17:42:14.397Z,13.50
2023-02-19T17:45:19.977Z,13.23
2023-02-19T17:48:25.850Z,12.20
2023-02-19T17:51:33.593Z,12.48
2023-02-19T17:54:39.109Z,13.35
2023-02-19T17:57:44.725Z,13.05
2023-02-19T18:00:50.471Z,12.55
2023-02-19T18:03:55.956Z,13.50
2023-02-19T18:07:04.045Z,12.75
2023-02-19T18:10:10.883Z,13.63
2023-02-19T18:13:16.248Z,12.70
2023-02-19T18:16:22.034Z,13.38
2023-02-19T18:19:27.380Z,12.80
2023-02-19T18:22:35.548Z,12.75
2023-02-19T18:25:40.898Z,12.88
2023-02-19T18:28:46.468Z,13.32
2023-02-19T18:31:51.885Z,13.48
2023-02-19T18:34:58.399Z,13.98
2023-02-19T18:38:06.615Z,13.60
2023-02-19T18:44:20.051Z,13.23
2023-02-19T18:47:26.903Z,13.60
2023-02-19T18:50:33.814Z,14.05
2023-02-19T18:53:41.690Z,15.07
2023-02-19T18:56:48.029Z,13.82
2023-02-19T18:59:53.596Z,14.70
2023-02-19T19:03:00.221Z,12.77
2023-02-19T19:06:05.788Z,13.90
2023-02-19T19:09:13.930Z,13.50
2023-02-19T19:12:19.361Z,13.02
2023-02-19T19:15:25.291Z,14.23
2023-02-19T19:18:31.542Z,13.55
2023-02-19T19:21:37.224Z,13.60
2023-02-19T19:24:45.689Z,14.32
2023-02-19T19:27:51.136Z,12.75
2023-02-19T19:30:56.528Z,13.30
2023-02-19T19:34:02.055Z,13.15
2023-02-19T19:37:07.418Z,14.50
2023-02-19T19:40:16.061Z,14.95
2023-02-19T19:43:21.246Z,13.43
2023-02-19T19:46:26.823Z,13.90
2023-02-19T19:49:32.167Z,15.85
2023-02-19T19:52:37.752Z,15.68
2023-02-19T19:55:45.557Z,12.75
2023-02-19T19:58:51.399Z,15.38
2023-02-19T20:01:58.156Z,15.55
2023-02-19T20:05:03.484Z,14.73
2023-02-19T20:08:09.193Z,14.90
2023-02-19T20:11:17.233Z,15.18
2023-02-19T20:14:23.668Z,14.18
2023-02-19T20:17:29.257Z,14.63
2023-02-19T20:20:34.729Z,14.90
2023-02-19T20:23:41.517Z,14.50
2023-02-19T20:26:49.423Z,13.68
2023-02-19T20:29:54.667Z,14.55
2023-02-19T20:33:00.288Z,14.50
2023-02-19T20:36:05.570Z,13.65
2023-02-19T20:39:10.660Z,14.82
2023-02-19T20:42:19.539Z,16.15
2023-02-19T20:45:24.997Z,15.95
2023-02-19T20:48:30.327Z,14.73
2023-02-19T20:51:35.434Z,14.98
2023-02-19T20:54:42.721Z,15.15
2023-02-19T20:57:50.709Z,15.80
2023-02-19T21:00:56.566Z,15.98
2023-02-19T21:04:02.213Z,16.25
2023-02-19T21:07:07.895Z,15.45
2023-02-19T21:10:13.433Z,15.93
2023-02-19T21:13:21.795Z,18.48
2023-02-19T21:16:27.146Z,17.73
2023-02-19T21:19:32.787Z,17.50
2023-02-19T21:22:37.922Z,17.70
2023-02-19T21:25:43.493Z,20.85
2023-02-19T21:28:53.599Z,18.25
2023-02-19T21:31:59.476Z,16.85
2023-02-19T21:35:04.879Z,16.50
2023-02-19T21:38:10.595Z,16.90
2023-02-19T21:41:15.725Z,17.05
2023-02-19T21:44:24.350Z,16.90
2023-02-19T21:47:30.117Z,16.33
2023-02-19T21:50:35.549Z,15.95
2023-02-19T21:53:41.836Z,16.88
2023-02-19T21:56:47.315Z,16.20
2023-02-19T21:59:55.088Z,16.90
2023-02-19T22:03:00.355Z,16.73
2023-02-19T22:06:05.844Z,15.43
2023-02-19T22:09:12.256Z,15.85
2023-02-19T22:12:17.619Z,17.55
2023-02-19T22:15:26.115Z,18.38
2023-02-19T22:18:31.693Z,17.80
2023-02-19T22:21:37.017Z,17.88
2023-02-19T22:24:42.528Z,18.55
2023-02-19T22:27:49.137Z,18.00
2023-02-19T22:30:57.738Z,20.13
2023-02-19T22:37:07.950Z,19.38
2023-02-19T22:40:13.604Z,19.63
2023-02-19T22:43:20.658Z,20.15
2023-02-19T22:46:29.494Z,19.60
2023-02-19T22:49:35.222Z,18.88
2023-02-19T22:52:40.504Z,18.90
2023-02-19T22:55:45.816Z,19.52
2023-02-19T22:58:51.020Z,22.58
2023-02-19T23:01:59.127Z,21.45
2023-02-19T23:05:04.270Z,21.48
2023-02-19T23:08:10.063Z,19.70
2023-02-19T23:11:15.873Z,21.05
2023-02-19T23:14:22.500Z,19.23
2023-02-19T23:17:30.196Z,21.05
2023-02-19T23:20:35.709Z,21.17
2023-02-19T23:23:40.906Z,20.92
2023-02-19T23:26:46.737Z,21.60
2023-02-19T23:29:52.205Z,21.05
2023-02-19T23:33:00.352Z,20.80
2023-02-19T23:36:05.375Z,21.48
2023-02-19T23:39:11.147Z,21.98
2023-02-19T23:42:17.978Z,22.20
2023-02-19T23:45:23.249Z,21.08
2023-02-19T23:48:31.337Z,21.02
2023-02-19T23:51:36.757Z,23.27
2023-02-19T23:54:42.380Z,20.33
2023-02-19T23:57:47.962Z,20.40
